createdAt,value
2017-05-13T00:00:39.044Z,1007.68
2017-05-13T00:02:01.518Z,1007.65
2017-05-13T00:03:23.672Z,1007.66
2017-05-13T00:04:45.828Z,1007.67
2017-05-13T00:06:08.308Z,1007.68
2017-05-13T00:07:29.839Z,1007.63
2017-05-13T00:08:52.360Z,1007.68
2017-05-13T00:10:14.504Z,1007.68
2017-05-13T00:11:36.052Z,1007.65
2017-05-13T00:12:58.220Z,1007.67
2017-05-13T00:14:20.419Z,1007.64
2017-05-13T00:15:42.870Z,1007.62
2017-05-13T00:17:04.750Z,1007.64
2017-05-13T00:18:26.589Z,1007.62
2017-05-13T00:19:48.441Z,1007.59
2017-05-13T00:21:10.841Z,1007.62
2017-05-13T00:22:33.081Z,1007.62
2017-05-13T00:23:54.973Z,1007.62
2017-05-13T00:25:16.511Z,1007.63
2017-05-13T00:26:38.641Z,1007.63
2017-05-13T00:28:00.510Z,1007.63
2017-05-13T00:29:23.000Z,1007.62
2017-05-13T00:30:44.836Z,1007.63
2017-05-13T00:32:07.281Z,1007.62
2017-05-13T00:33:29.112Z,1007.63
2017-05-13T00:34:51.060Z,1007.6
2017-05-13T00:36:13.530Z,1007.61
2017-05-13T00:37:36.040Z,1007.57
2017-05-13T00:38:58.211Z,1007.6
2017-05-13T00:40:20.361Z,1007.66
2017-05-13T00:41:41.880Z,1007.6
2017-05-13T00:43:04.386Z,1007.63
2017-05-13T00:44:26.548Z,1007.63
2017-05-13T00:45:47.769Z,1007.66
2017-05-13T00:47:09.933Z,1007.65
2017-05-13T00:48:32.386Z,1007.7
2017-05-13T00:49:54.892Z,1007.7
2017-05-13T00:51:16.392Z,1007.7
2017-05-13T00:52:38.271Z,1007.73
2017-05-13T00:54:00.401Z,1007.76
2017-05-13T00:55:22.570Z,1007.75
2017-05-13T00:56:44.090Z,1007.79
2017-05-13T00:58:05.748Z,1007.81
2017-05-13T00:59:28.471Z,1007.85
2017-05-13T01:00:50.311Z,1007.88
2017-05-13T01:02:12.460Z,1007.92
2017-05-13T01:03:34.705Z,1007.89
2017-05-13T01:04:57.111Z,1007.85
2017-05-13T01:06:19.289Z,1007.9
2017-05-13T01:07:41.507Z,1007.92
2017-05-13T01:09:03.339Z,1007.96
2017-05-13T01:10:25.643Z,1007.99
2017-05-13T01:11:47.797Z,1007.98
2017-05-13T01:13:09.315Z,1007.97
2017-05-13T01:14:31.493Z,1007.98
2017-05-13T01:15:54.311Z,1007.97
2017-05-13T01:17:16.458Z,1007.94
2017-05-13T01:18:38.349Z,1007.94
2017-05-13T01:20:00.499Z,1007.97
2017-05-13T01:21:22.734Z,1007.95
2017-05-13T01:22:44.587Z,1007.93
2017-05-13T01:24:06.099Z,1007.95
2017-05-13T01:25:28.248Z,1008
2017-05-13T01:26:50.072Z,1008.03
2017-05-13T01:28:12.250Z,1008.03
2017-05-13T01:29:34.728Z,1008.02
2017-05-13T01:30:56.879Z,1008
2017-05-13T01:32:18.819Z,1008.02
2017-05-13T01:33:40.642Z,1008.04
2017-05-13T01:35:02.812Z,1008.04
2017-05-13T01:36:25.020Z,1008.07
2017-05-13T01:37:47.568Z,1008.09
2017-05-13T01:39:09.719Z,1008.07
2017-05-13T01:40:30.933Z,1008.08
2017-05-13T01:41:53.203Z,1008.08
2017-05-13T01:43:15.695Z,1008.12
2017-05-13T01:44:37.535Z,1008.1
2017-05-13T01:45:59.746Z,1008.15
2017-05-13T01:47:21.567Z,1008.17
2017-05-13T01:48:44.068Z,1008.24
2017-05-13T01:50:06.211Z,1008.21
2017-05-13T01:51:27.727Z,1008.18
2017-05-13T01:52:49.611Z,1008.24
2017-05-13T01:54:11.763Z,1008.26
2017-05-13T01:55:33.290Z,1008.23
2017-05-13T01:56:55.133Z,1008.21
2017-05-13T01:58:17.290Z,1008.25
2017-05-13T01:59:39.811Z,1008.26
2017-05-13T02:01:01.643Z,1008.26
2017-05-13T02:02:23.270Z,1008.23
2017-05-13T02:03:45.758Z,1008.3
2017-05-13T02:05:07.583Z,1008.25
2017-05-13T02:06:29.132Z,1008.31
2017-05-13T02:07:50.656Z,1008.24
2017-05-13T02:09:12.903Z,1008.27
2017-05-13T02:10:35.388Z,1008.26
2017-05-13T02:11:56.778Z,1008.29
2017-05-13T02:13:18.612Z,1008.28
2017-05-13T02:14:40.148Z,1008.29
2017-05-13T02:16:02.010Z,1008.36
2017-05-13T02:17:24.171Z,1008.31
2017-05-13T02:18:46.338Z,1008.35
2017-05-13T02:20:08.489Z,1008.39
2017-05-13T02:21:30.298Z,1008.41
2017-05-13T02:22:51.809Z,1008.39
2017-05-13T02:24:13.660Z,1008.42
2017-05-13T02:25:35.798Z,1008.4
2017-05-13T02:26:57.972Z,1008.43
2017-05-13T02:28:20.119Z,1008.43
2017-05-13T02:29:41.943Z,1008.45
2017-05-13T02:31:03.149Z,1008.47
2017-05-13T02:32:25.625Z,1008.48
2017-05-13T02:33:47.767Z,1008.51
2017-05-13T02:35:09.933Z,1008.6
2017-05-13T02:36:31.472Z,1008.56
2017-05-13T02:37:53.648Z,1008.5
2017-05-13T02:39:15.296Z,1008.59
2017-05-13T02:40:37.128Z,1008.54
2017-05-13T02:41:59.618Z,1008.53
2017-05-13T02:43:21.749Z,1008.53
2017-05-13T02:44:43.635Z,1008.52
2017-05-13T02:46:05.787Z,1008.52
2017-05-13T02:47:26.978Z,1008.61
2017-05-13T02:48:49.116Z,1008.64
2017-05-13T02:50:10.678Z,1008.61
2017-05-13T02:51:31.988Z,1008.67
2017-05-13T02:52:53.190Z,1008.69
2017-05-13T02:54:15.673Z,1008.71
2017-05-13T02:55:37.550Z,1008.68
2017-05-13T02:56:59.117Z,1008.68
2017-05-13T02:58:21.315Z,1008.7
2017-05-13T02:59:43.456Z,1008.69
2017-05-13T03:01:05.723Z,1008.74
2017-05-13T03:02:27.557Z,1008.77
2017-05-13T03:03:49.508Z,1008.77
2017-05-13T03:05:11.276Z,1008.73
2017-05-13T03:06:33.423Z,1008.76
2017-05-13T03:07:54.945Z,1008.84
2017-05-13T03:09:16.468Z,1008.83
2017-05-13T03:10:39.008Z,1008.84
2017-05-13T03:12:00.583Z,1008.88
2017-05-13T03:13:22.713Z,1008.84
2017-05-13T03:14:44.604Z,1008.81
2017-05-13T03:16:07.092Z,1008.82
2017-05-13T03:17:29.237Z,1008.81
2017-05-13T03:18:51.398Z,1008.81
2017-05-13T03:20:13.067Z,1008.74
2017-05-13T03:21:34.588Z,1008.8
2017-05-13T03:22:55.790Z,1008.74
2017-05-13T03:24:18.250Z,1008.73
2017-05-13T03:25:40.081Z,1008.76
2017-05-13T03:27:01.987Z,1008.78
2017-05-13T03:28:24.207Z,1008.79
2017-05-13T03:29:45.758Z,1008.8
2017-05-13T03:31:07.304Z,1008.8
2017-05-13T03:32:29.138Z,1008.82
2017-05-13T03:33:50.689Z,1008.8
2017-05-13T03:35:12.943Z,1008.8
2017-05-13T03:36:34.455Z,1008.71
2017-05-13T03:37:55.968Z,1008.72
2017-05-13T03:39:17.797Z,1008.7
2017-05-13T03:40:39.306Z,1008.74
2017-05-13T03:42:00.177Z,1008.76
2017-05-13T03:43:21.975Z,1008.77
2017-05-13T03:44:44.128Z,1008.75
2017-05-13T03:46:06.278Z,1008.79
2017-05-13T03:47:27.878Z,1008.79
2017-05-13T03:48:50.068Z,1008.76
2017-05-13T03:50:11.889Z,1008.74
2017-05-13T03:51:33.418Z,1008.79
2017-05-13T03:52:55.571Z,1008.82
2017-05-13T03:54:17.438Z,1008.83
2017-05-13T03:55:39.577Z,1008.87
2017-05-13T03:57:01.475Z,1008.92
2017-05-13T03:58:22.673Z,1008.94
2017-05-13T03:59:44.510Z,1008.9
2017-05-13T04:01:07.120Z,1008.99
2017-05-13T04:02:29.150Z,1008.99
2017-05-13T04:03:51.415Z,1009.01
2017-05-13T04:05:13.198Z,1008.99
2017-05-13T04:06:35.338Z,1009.01
2017-05-13T04:07:57.178Z,1009.02
2017-05-13T04:09:19.334Z,1008.98
2017-05-13T04:10:41.466Z,1008.95
2017-05-13T04:12:03.387Z,1008.92
2017-05-13T04:13:24.912Z,1008.97
2017-05-13T04:14:47.088Z,1009.02
2017-05-13T04:16:09.237Z,1009.05
2017-05-13T04:17:31.399Z,1009.11
2017-05-13T04:18:53.595Z,1009.1
2017-05-13T04:20:15.777Z,1009.11
2017-05-13T04:21:37.351Z,1009.09
2017-05-13T04:22:59.189Z,1009.08
2017-05-13T04:24:20.728Z,1009.05
2017-05-13T04:25:42.886Z,1009.03
2017-05-13T04:27:05.528Z,1009.06
2017-05-13T04:28:27.107Z,1009.11
2017-05-13T04:29:49.351Z,1009.14
2017-05-13T04:31:11.825Z,1009.12
2017-05-13T04:32:33.697Z,1009.08
2017-05-13T04:33:56.207Z,1009.06
2017-05-13T04:35:17.815Z,1009.05
2017-05-13T04:36:39.323Z,1009.08
2017-05-13T04:38:02.227Z,1009.07
2017-05-13T04:39:24.081Z,1009.08
2017-05-13T04:40:46.017Z,1009.04
2017-05-13T04:42:08.189Z,1009
2017-05-13T04:43:31.017Z,1009.04
2017-05-13T04:44:53.498Z,1009.06
2017-05-13T04:46:15.637Z,1009.06
2017-05-13T04:47:37.485Z,1009.11
2017-05-13T04:48:59.650Z,1009.13
2017-05-13T04:50:21.902Z,1009.17
2017-05-13T04:51:43.758Z,1009.19
2017-05-13T04:53:05.984Z,1009.16
2017-05-13T04:54:28.445Z,1009.15
2017-05-13T04:55:49.663Z,1009.18
2017-05-13T04:57:11.500Z,1009.18
2017-05-13T04:58:34.057Z,1009.21
2017-05-13T04:59:56.488Z,1009.23
2017-05-13T05:01:17.687Z,1009.19
2017-05-13T05:02:39.517Z,1009.2
2017-05-13T05:04:01.114Z,1009.22
2017-05-13T05:05:22.253Z,1009.22
2017-05-13T05:06:44.087Z,1009.2
2017-05-13T05:08:05.927Z,1009.2
2017-05-13T05:09:28.076Z,1009.22
2017-05-13T05:10:50.327Z,1009.23
2017-05-13T05:12:12.170Z,1009.25
2017-05-13T05:13:34.668Z,1009.28
2017-05-13T05:14:56.551Z,1009.31
2017-05-13T05:16:18.698Z,1009.3
2017-05-13T05:17:40.226Z,1009.33
2017-05-13T05:19:02.712Z,1009.34
2017-05-13T05:20:24.837Z,1009.34
2017-05-13T05:21:46.677Z,1009.38
2017-05-13T05:23:08.267Z,1009.35
2017-05-13T05:24:30.647Z,1009.37
2017-05-13T05:25:52.784Z,1009.39
2017-05-13T05:27:14.662Z,1009.39
2017-05-13T05:28:36.837Z,1009.44
2017-05-13T05:29:58.989Z,1009.45
2017-05-13T05:31:20.508Z,1009.48
2017-05-13T05:32:42.978Z,1009.51
2017-05-13T05:34:04.818Z,1009.47
2017-05-13T05:35:26.358Z,1009.5
2017-05-13T05:36:47.878Z,1009.6
2017-05-13T05:38:10.430Z,1009.6
2017-05-13T05:39:32.577Z,1009.6
2017-05-13T05:40:53.768Z,1009.6
2017-05-13T05:42:15.967Z,1009.63
2017-05-13T05:43:38.168Z,1009.63
2017-05-13T05:45:00.312Z,1009.68
2017-05-13T05:46:22.660Z,1009.69
2017-05-13T05:47:44.495Z,1009.76
2017-05-13T05:49:06.988Z,1009.8
2017-05-13T05:50:28.849Z,1009.79
2017-05-13T05:51:51.351Z,1009.88
2017-05-13T05:53:13.201Z,1009.94
2017-05-13T05:54:35.327Z,1009.92
2017-05-13T05:55:57.578Z,1009.97
2017-05-13T05:57:20.040Z,1010.05
2017-05-13T05:58:41.937Z,1010.08
2017-05-13T06:00:04.505Z,1010.09
2017-05-13T06:01:26.990Z,1010.05
2017-05-13T06:02:49.133Z,1010.04
2017-05-13T06:04:11.280Z,1010.08
2017-05-13T06:05:33.838Z,1010.11
2017-05-13T06:06:55.438Z,1010.11
2017-05-13T06:08:17.282Z,1010.19
2017-05-13T06:09:39.433Z,1010.22
2017-05-13T06:11:01.911Z,1010.26
2017-05-13T06:12:23.565Z,1010.42
2017-05-13T06:13:45.712Z,1010.47
2017-05-13T06:15:07.601Z,1010.52
2017-05-13T06:16:30.616Z,1010.51
2017-05-13T06:17:52.147Z,1010.39
2017-05-13T06:19:14.322Z,1010.37
2017-05-13T06:20:36.460Z,1010.34
2017-05-13T06:21:58.878Z,1010.36
2017-05-13T06:23:21.350Z,1010.31
2017-05-13T06:24:43.829Z,1010.33
2017-05-13T06:26:05.992Z,1010.37
2017-05-13T06:27:28.137Z,1010.46
2017-05-13T06:28:49.470Z,1010.49
2017-05-13T06:30:12.006Z,1010.51
2017-05-13T06:31:34.057Z,1010.55
2017-05-13T06:32:56.894Z,1010.56
2017-05-13T06:34:19.058Z,1010.52
2017-05-13T06:35:41.255Z,1010.52
2017-05-13T06:37:02.806Z,1010.48
2017-05-13T06:38:24.972Z,1010.49
2017-05-13T06:39:46.885Z,1010.5
2017-05-13T06:41:09.478Z,1010.53
2017-05-13T06:42:31.163Z,1010.55
2017-05-13T06:43:53.919Z,1010.54
2017-05-13T06:45:16.098Z,1010.52
2017-05-13T06:46:38.339Z,1010.53
2017-05-13T06:48:00.499Z,1010.55
2017-05-13T06:49:22.647Z,1010.6
2017-05-13T06:50:45.180Z,1010.6
2017-05-13T06:52:07.439Z,1010.62
2017-05-13T06:53:28.993Z,1010.68
2017-05-13T06:54:51.156Z,1010.67
2017-05-13T06:56:12.357Z,1010.65
2017-05-13T06:57:34.530Z,1010.67
2017-05-13T06:58:57.038Z,1010.67
2017-05-13T07:00:19.111Z,1010.68
2017-05-13T07:01:41.331Z,1010.69
2017-05-13T07:03:03.510Z,1010.71
2017-05-13T07:04:26.019Z,1010.77
2017-05-13T07:05:48.526Z,1010.85
2017-05-13T07:07:10.689Z,1010.81
2017-05-13T07:08:33.113Z,1010.84
2017-05-13T07:09:55.023Z,1010.85
2017-05-13T07:11:16.889Z,1010.88
2017-05-13T07:12:38.744Z,1010.89
2017-05-13T07:14:00.969Z,1010.92
2017-05-13T07:15:23.149Z,1010.96
2017-05-13T07:16:44.970Z,1010.95
2017-05-13T07:18:06.951Z,1010.98
2017-05-13T07:19:29.129Z,1011.02
2017-05-13T07:20:51.318Z,1011.05
2017-05-13T07:22:14.104Z,1011.06
2017-05-13T07:23:35.960Z,1011.05
2017-05-13T07:24:58.448Z,1011.05
2017-05-13T07:26:20.629Z,1011.09
2017-05-13T07:27:42.769Z,1011.05
2017-05-13T07:29:04.929Z,1011.06
2017-05-13T07:30:26.468Z,1011.05
2017-05-13T07:31:48.990Z,1011.08
2017-05-13T07:33:11.765Z,1011.12
2017-05-13T07:34:33.920Z,1011.15
2017-05-13T07:35:56.134Z,1011.18
2017-05-13T07:37:18.913Z,1011.2
2017-05-13T07:38:41.078Z,1011.19
2017-05-13T07:40:03.287Z,1011.17
2017-05-13T07:41:25.776Z,1011.16
2017-05-13T07:42:48.291Z,1011.13
2017-05-13T07:44:11.030Z,1011.12
2017-05-13T07:45:33.231Z,1011.11
2017-05-13T07:46:55.177Z,1011.11
2017-05-13T07:48:17.126Z,1011.07
2017-05-13T07:49:39.703Z,1011.06
2017-05-13T07:51:02.198Z,1011.06
2017-05-13T07:52:24.753Z,1011.1
2017-05-13T07:53:47.243Z,1011.1
2017-05-13T07:55:09.825Z,1011.11
2017-05-13T07:56:32.363Z,1011.1
2017-05-13T07:57:54.867Z,1011.1
2017-05-13T07:59:17.037Z,1011.04
2017-05-13T08:00:39.617Z,1011.07
2017-05-13T08:02:02.097Z,1011.02
2017-05-13T08:03:24.618Z,1010.99
2017-05-13T08:04:46.797Z,1010.97
2017-05-13T08:06:09.326Z,1011
2017-05-13T08:07:31.228Z,1010.98
2017-05-13T08:08:53.760Z,1010.96
2017-05-13T08:10:16.042Z,1011.01
2017-05-13T08:11:38.673Z,1011.05
2017-05-13T08:13:01.159Z,1011.14
2017-05-13T08:14:22.703Z,1011.22
2017-05-13T08:15:44.556Z,1011.24
2017-05-13T08:17:06.966Z,1011.35
2017-05-13T08:18:29.661Z,1011.43
2017-05-13T08:19:51.306Z,1011.45
2017-05-13T08:21:13.978Z,1011.44
2017-05-13T08:22:36.200Z,1011.5
2017-05-13T08:23:58.387Z,1011.48
2017-05-13T08:25:20.886Z,1011.55
2017-05-13T08:26:43.055Z,1011.52
2017-05-13T08:28:05.779Z,1011.58
2017-05-13T08:29:28.267Z,1011.55
2017-05-13T08:30:50.105Z,1011.63
2017-05-13T08:32:11.388Z,1011.63
2017-05-13T08:33:33.981Z,1011.61
2017-05-13T08:34:56.475Z,1011.69
2017-05-13T08:36:18.656Z,1011.71
2017-05-13T08:37:40.197Z,1011.73
2017-05-13T08:39:02.337Z,1011.75
2017-05-13T08:40:25.035Z,1011.77
2017-05-13T08:41:47.281Z,1011.68
2017-05-13T08:43:08.876Z,1011.72
2017-05-13T08:44:30.707Z,1011.7
2017-05-13T08:45:52.566Z,1011.75
2017-05-13T08:47:15.208Z,1011.79
2017-05-13T08:48:37.086Z,1011.71
2017-05-13T08:49:59.294Z,1011.79
2017-05-13T08:51:21.801Z,1011.74
2017-05-13T08:52:43.666Z,1011.8
2017-05-13T08:54:05.917Z,1011.81
2017-05-13T08:55:27.755Z,1011.84
2017-05-13T08:56:49.009Z,1011.81
2017-05-13T08:58:11.509Z,1011.83
2017-05-13T08:59:34.036Z,1011.84
2017-05-13T09:00:56.825Z,1011.8
2017-05-13T09:02:19.351Z,1011.85
2017-05-13T09:03:41.501Z,1011.82
2017-05-13T09:05:35.304Z,1011.79
2017-05-13T09:06:57.508Z,1011.83
2017-05-13T09:08:19.676Z,1011.91
2017-05-13T09:09:41.846Z,1011.84
2017-05-13T09:11:04.635Z,1011.88
2017-05-13T09:12:26.504Z,1011.93
2017-05-13T09:13:48.359Z,1011.94
2017-05-13T09:15:10.656Z,1011.91
2017-05-13T09:16:33.126Z,1011.94
2017-05-13T09:17:54.998Z,1012.02
2017-05-13T09:19:17.189Z,1012.04
2017-05-13T09:20:39.038Z,1012.05
2017-05-13T09:22:00.827Z,1012.04
2017-05-13T09:23:22.373Z,1012.09
2017-05-13T09:24:44.286Z,1012.11
2017-05-13T09:26:05.826Z,1012.11
2017-05-13T09:27:28.635Z,1012.14
2017-05-13T09:28:51.172Z,1012.13
2017-05-13T09:30:13.025Z,1012.12
2017-05-13T09:31:35.194Z,1012.15
2017-05-13T09:32:58.040Z,1012.18
2017-05-13T09:34:20.575Z,1012.25
2017-05-13T09:35:42.516Z,1012.17
2017-05-13T09:37:05.049Z,1012.16
2017-05-13T09:38:27.329Z,1012.18
2017-05-13T09:39:49.516Z,1012.27
2017-05-13T09:41:11.385Z,1012.26
2017-05-13T09:42:33.555Z,1012.29
2017-05-13T09:43:55.816Z,1012.34
2017-05-13T09:45:17.665Z,1012.33
2017-05-13T09:46:39.589Z,1012.35
2017-05-13T09:48:01.446Z,1012.32
2017-05-13T09:49:23.337Z,1012.28
2017-05-13T09:50:45.495Z,1012.28
2017-05-13T09:52:07.982Z,1012.24
2017-05-13T09:53:30.546Z,1012.27
2017-05-13T09:54:53.016Z,1012.31
2017-05-13T09:56:14.872Z,1012.22
2017-05-13T09:57:37.075Z,1012.24
2017-05-13T09:58:59.225Z,1012.2
2017-05-13T10:00:21.465Z,1012.27
2017-05-13T10:01:43.742Z,1012.24
2017-05-13T10:03:05.976Z,1012.23
2017-05-13T10:04:28.155Z,1012.2
2017-05-13T10:05:50.402Z,1012.16
2017-05-13T10:07:12.341Z,1012.19
2017-05-13T10:08:34.547Z,1012.21
2017-05-13T10:09:56.778Z,1012.2
2017-05-13T10:11:19.254Z,1012.18
2017-05-13T10:12:41.777Z,1012.22
2017-05-13T10:14:04.305Z,1012.16
2017-05-13T10:15:26.170Z,1012.21
2017-05-13T10:16:48.647Z,1012.21
2017-05-13T10:18:10.199Z,1012.26
2017-05-13T10:19:32.069Z,1012.28
2017-05-13T10:20:54.579Z,1012.26
2017-05-13T10:22:17.112Z,1012.26
2017-05-13T10:23:39.651Z,1012.17
2017-05-13T10:25:01.588Z,1012.16
2017-05-13T10:26:23.132Z,1012.18
2017-05-13T10:27:45.667Z,1012.24
2017-05-13T10:29:07.577Z,1012.21
2017-05-13T10:30:29.765Z,1012.24
2017-05-13T10:31:52.024Z,1012.28
2017-05-13T10:33:13.867Z,1012.28
2017-05-13T10:34:36.351Z,1012.3
2017-05-13T10:35:58.612Z,1012.29
2017-05-13T10:37:20.536Z,1012.21
2017-05-13T10:38:43.037Z,1012.15
2017-05-13T10:40:05.237Z,1012.09
2017-05-13T10:41:27.457Z,1012.12
2017-05-13T10:42:49.807Z,1012.13
2017-05-13T10:44:12.073Z,1012.1
2017-05-13T10:45:34.586Z,1012.04
2017-05-13T10:46:57.096Z,1012
2017-05-13T10:48:19.708Z,1012.08
2017-05-13T10:49:42.231Z,1012.06
2017-05-13T10:51:04.116Z,1011.98
2017-05-13T10:52:26.012Z,1011.93
2017-05-13T10:53:48.205Z,1011.98
2017-05-13T10:55:10.456Z,1011.97
2017-05-13T10:56:32.691Z,1011.98
2017-05-13T10:57:55.287Z,1011.96
2017-05-13T10:59:16.871Z,1012
2017-05-13T11:00:39.725Z,1011.99
2017-05-13T11:02:01.938Z,1011.99
2017-05-13T11:03:23.797Z,1011.97
2017-05-13T11:04:45.971Z,1012.01
2017-05-13T11:06:08.506Z,1011.96
2017-05-13T11:07:30.677Z,1011.94
2017-05-13T11:08:53.068Z,1011.98
2017-05-13T11:10:15.626Z,1011.95
2017-05-13T11:11:38.125Z,1011.97
2017-05-13T11:12:59.785Z,1011.93
2017-05-13T11:14:22.376Z,1011.99
2017-05-13T11:15:44.623Z,1011.93
2017-05-13T11:17:06.830Z,1011.87
2017-05-13T11:18:28.689Z,1011.88
2017-05-13T11:19:51.194Z,1011.93
2017-05-13T11:21:13.095Z,1011.93
2017-05-13T11:22:35.925Z,1011.97
2017-05-13T11:23:58.278Z,1011.98
2017-05-13T11:25:20.436Z,1011.96
2017-05-13T11:26:42.603Z,1011.93
2017-05-13T11:28:05.564Z,1011.92
2017-05-13T11:29:27.848Z,1011.93
2017-05-13T11:30:50.347Z,1011.97
2017-05-13T11:32:12.687Z,1011.97
2017-05-13T11:33:35.516Z,1011.92
2017-05-13T11:35:29.340Z,1012.02
2017-05-13T11:36:51.189Z,1012.02
2017-05-13T11:38:13.116Z,1012.15
2017-05-13T11:39:35.006Z,1012.16
2017-05-13T11:40:57.588Z,1012.17
2017-05-13T11:42:20.225Z,1012.17
2017-05-13T11:43:42.396Z,1012.21
2017-05-13T11:45:05.017Z,1012.27
2017-05-13T11:46:27.247Z,1012.37
2017-05-13T11:47:49.551Z,1012.35
2017-05-13T11:49:12.063Z,1012.35
2017-05-13T11:50:34.176Z,1012.33
2017-05-13T11:51:56.586Z,1012.3
2017-05-13T11:53:18.756Z,1012.31
2017-05-13T11:54:40.909Z,1012.31
2017-05-13T11:56:03.170Z,1012.4
2017-05-13T11:57:25.375Z,1012.44
2017-05-13T11:58:47.216Z,1012.48
2017-05-13T12:00:09.427Z,1012.37
2017-05-13T12:01:31.886Z,1012.44
2017-05-13T12:02:53.758Z,1012.37
2017-05-13T12:04:15.323Z,1012.41
2017-05-13T12:05:37.805Z,1012.31
2017-05-13T12:06:59.738Z,1012.35
2017-05-13T12:08:22.298Z,1012.29
2017-05-13T12:09:44.269Z,1012.34
2017-05-13T12:11:06.217Z,1012.36
2017-05-13T12:12:28.683Z,1012.36
2017-05-13T12:13:50.210Z,1012.32
2017-05-13T12:15:12.430Z,1012.28
2017-05-13T12:16:34.317Z,1012.33
2017-05-13T12:17:57.230Z,1012.41
2017-05-13T12:19:19.089Z,1012.28
2017-05-13T12:20:41.290Z,1012.18
2017-05-13T12:22:03.458Z,1012.13
2017-05-13T12:23:25.979Z,1012.15
2017-05-13T12:24:48.583Z,1012.08
2017-05-13T12:26:10.781Z,1012.06
2017-05-13T12:27:32.657Z,1012.14
2017-05-13T12:28:55.062Z,1012.19
2017-05-13T12:30:17.014Z,1012.17
2017-05-13T12:31:39.255Z,1012.14
2017-05-13T12:33:01.526Z,1012.19
2017-05-13T12:34:23.329Z,1012.25
2017-05-13T12:35:44.875Z,1012.29
2017-05-13T12:37:06.838Z,1012.32
2017-05-13T12:38:29.162Z,1012.36
2017-05-13T12:39:51.782Z,1012.37
2017-05-13T12:41:14.004Z,1012.33
2017-05-13T12:42:36.196Z,1012.36
2017-05-13T12:43:58.407Z,1012.26
2017-05-13T12:45:20.923Z,1012.33
2017-05-13T12:46:42.815Z,1012.36
2017-05-13T12:48:04.359Z,1012.38
2017-05-13T12:49:26.270Z,1012.37
2017-05-13T12:50:48.126Z,1012.39
2017-05-13T12:52:09.792Z,1012.42
2017-05-13T12:53:32.287Z,1012.4
2017-05-13T12:54:54.494Z,1012.41
2017-05-13T12:56:17.373Z,1012.38
2017-05-13T12:57:39.212Z,1012.37
2017-05-13T12:59:01.164Z,1012.39
2017-05-13T13:00:23.713Z,1012.39
2017-05-13T13:01:45.929Z,1012.41
2017-05-13T13:03:08.123Z,1012.36
2017-05-13T13:04:30.584Z,1012.37
2017-05-13T13:05:52.762Z,1012.39
2017-05-13T13:07:15.622Z,1012.37
2017-05-13T13:08:37.814Z,1012.4
2017-05-13T13:09:59.685Z,1012.39
2017-05-13T13:11:21.879Z,1012.34
2017-05-13T13:12:44.404Z,1012.32
2017-05-13T13:14:05.942Z,1012.33
2017-05-13T13:15:28.125Z,1012.3
2017-05-13T13:16:49.981Z,1012.33
2017-05-13T13:18:12.466Z,1012.33
2017-05-13T13:19:34.348Z,1012.3
2017-05-13T13:20:56.522Z,1012.39
2017-05-13T13:22:18.385Z,1012.36
2017-05-13T13:23:40.596Z,1012.34
2017-05-13T13:25:02.577Z,1012.33
2017-05-13T13:26:24.768Z,1012.31
2017-05-13T13:27:46.958Z,1012.34
2017-05-13T13:29:09.769Z,1012.34
2017-05-13T13:30:32.289Z,1012.42
2017-05-13T13:31:55.755Z,1012.5
2017-05-13T13:33:17.947Z,1012.45
2017-05-13T13:34:40.428Z,1012.44
2017-05-13T13:36:02.637Z,1012.44
2017-05-13T13:37:25.241Z,1012.4
2017-05-13T13:38:47.136Z,1012.42
2017-05-13T13:40:09.342Z,1012.42
2017-05-13T13:41:31.540Z,1012.43
2017-05-13T13:42:53.861Z,1012.42
2017-05-13T13:44:16.114Z,1012.48
2017-05-13T13:45:37.947Z,1012.45
2017-05-13T13:46:59.486Z,1012.43
2017-05-13T13:48:21.669Z,1012.43
2017-05-13T13:49:44.245Z,1012.42
2017-05-13T13:51:07.035Z,1012.4
2017-05-13T13:52:28.971Z,1012.42
2017-05-13T13:53:50.827Z,1012.37
2017-05-13T13:55:13.313Z,1012.42
2017-05-13T13:56:35.455Z,1012.4
2017-05-13T13:57:57.418Z,1012.41
2017-05-13T13:59:19.465Z,1012.43
2017-05-13T14:00:41.017Z,1012.4
2017-05-13T14:02:03.514Z,1012.41
2017-05-13T14:03:24.727Z,1012.39
2017-05-13T14:04:46.933Z,1012.37
2017-05-13T14:06:08.850Z,1012.41
2017-05-13T14:07:31.697Z,1012.42
2017-05-13T14:08:54.117Z,1012.34
2017-05-13T14:10:16.289Z,1012.38
2017-05-13T14:11:38.465Z,1012.37
2017-05-13T14:13:00.379Z,1012.39
2017-05-13T14:14:22.123Z,1012.38
2017-05-13T14:15:44.297Z,1012.4
2017-05-13T14:17:06.520Z,1012.4
2017-05-13T14:18:29.008Z,1012.38
2017-05-13T14:19:51.485Z,1012.3
2017-05-13T14:21:13.755Z,1012.32
2017-05-13T14:22:34.977Z,1012.28
2017-05-13T14:23:57.067Z,1012.31
2017-05-13T14:25:19.566Z,1012.28
2017-05-13T14:26:42.055Z,1012.31
2017-05-13T14:28:04.367Z,1012.28
2017-05-13T14:29:26.897Z,1012.26
2017-05-13T14:30:48.735Z,1012.25
2017-05-13T14:32:11.135Z,1012.24
2017-05-13T14:33:32.729Z,1012.25
2017-05-13T14:34:54.828Z,1012.24
2017-05-13T14:36:16.674Z,1012.24
2017-05-13T14:37:38.884Z,1012.21
2017-05-13T14:39:01.077Z,1012.22
2017-05-13T14:40:23.546Z,1012.16
2017-05-13T14:41:46.166Z,1012.18
2017-05-13T14:43:08.685Z,1012.21
2017-05-13T14:44:30.615Z,1012.2
2017-05-13T14:45:53.100Z,1012.24
2017-05-13T14:47:14.951Z,1012.28
2017-05-13T14:48:37.445Z,1012.23
2017-05-13T14:49:59.712Z,1012.22
2017-05-13T14:51:22.213Z,1012.2
2017-05-13T14:52:44.401Z,1012.21
2017-05-13T14:54:06.426Z,1012.22
2017-05-13T14:55:27.803Z,1012.28
2017-05-13T14:56:50.009Z,1012.34
2017-05-13T14:58:12.520Z,1012.32
2017-05-13T14:59:35.022Z,1012.32
2017-05-13T15:00:56.887Z,1012.34
2017-05-13T15:02:19.381Z,1012.34
2017-05-13T15:03:40.913Z,1012.35
2017-05-13T15:05:02.811Z,1012.37
2017-05-13T15:06:25.358Z,1012.39
2017-05-13T15:07:46.943Z,1012.43
2017-05-13T15:09:09.152Z,1012.46
2017-05-13T15:10:31.008Z,1012.48
2017-05-13T15:11:53.504Z,1012.47
2017-05-13T15:13:16.646Z,1012.52
2017-05-13T15:14:38.848Z,1012.51
2017-05-13T15:16:01.526Z,1012.53
2017-05-13T15:17:24.157Z,1012.51
2017-05-13T15:18:46.674Z,1012.52
2017-05-13T15:20:09.187Z,1012.56
2017-05-13T15:21:31.701Z,1012.57
2017-05-13T15:22:53.938Z,1012.56
2017-05-13T15:24:16.130Z,1012.58
2017-05-13T15:25:38.124Z,1012.57
2017-05-13T15:26:59.988Z,1012.58
2017-05-13T15:28:22.208Z,1012.56
2017-05-13T15:29:44.049Z,1012.51
2017-05-13T15:31:05.935Z,1012.48
2017-05-13T15:32:28.137Z,1012.41
2017-05-13T15:33:50.623Z,1012.35
2017-05-13T15:35:12.949Z,1012.37
2017-05-13T15:36:35.227Z,1012.34
2017-05-13T15:37:57.389Z,1012.3
2017-05-13T15:39:19.627Z,1012.3
2017-05-13T15:40:42.144Z,1012.32
2017-05-13T15:42:04.596Z,1012.33
2017-05-13T15:43:27.104Z,1012.32
2017-05-13T15:44:48.652Z,1012.35
2017-05-13T15:46:11.419Z,1012.32
2017-05-13T15:47:33.614Z,1012.41
2017-05-13T15:48:55.498Z,1012.4
2017-05-13T15:50:17.757Z,1012.43
2017-05-13T15:51:40.655Z,1012.48
2017-05-13T15:53:02.520Z,1012.47
2017-05-13T15:54:24.670Z,1012.49
2017-05-13T15:55:46.577Z,1012.54
2017-05-13T15:57:09.416Z,1012.54
2017-05-13T15:58:31.586Z,1012.58
2017-05-13T15:59:53.788Z,1012.61
2017-05-13T16:01:16.402Z,1012.61
2017-05-13T16:02:39.157Z,1012.63
2017-05-13T16:04:01.344Z,1012.66
2017-05-13T16:05:23.845Z,1012.66
2017-05-13T16:06:46.437Z,1012.62
2017-05-13T16:08:09.332Z,1012.63
2017-05-13T16:09:31.529Z,1012.73
2017-05-13T16:10:53.694Z,1012.71
2017-05-13T16:12:15.567Z,1012.7
2017-05-13T16:13:37.700Z,1012.72
2017-05-13T16:15:00.176Z,1012.71
2017-05-13T16:16:21.744Z,1012.72
2017-05-13T16:17:43.728Z,1012.75
2017-05-13T16:19:05.626Z,1012.72
2017-05-13T16:20:27.796Z,1012.75
2017-05-13T16:21:49.968Z,1012.75
2017-05-13T16:23:12.466Z,1012.78
2017-05-13T16:24:34.877Z,1012.79
2017-05-13T16:25:57.367Z,1012.86
2017-05-13T16:27:19.225Z,1012.87
2017-05-13T16:28:41.704Z,1012.98
2017-05-13T16:30:04.741Z,1013
2017-05-13T16:31:26.657Z,1012.98
2017-05-13T16:32:49.178Z,1013.08
2017-05-13T16:34:11.687Z,1013.12
2017-05-13T16:35:34.274Z,1013.2
2017-05-13T16:36:56.819Z,1013.21
2017-05-13T16:38:18.690Z,1013.23